createdAt,value
2022-11-24T00:00:45.297Z,52.10
2022-11-24T00:03:56.039Z,54.70
2022-11-24T00:06:59.790Z,55.47
2022-11-24T00:10:03.987Z,44.25
2022-11-24T00:13:07.671Z,42.92
2022-11-24T00:16:14.860Z,45.25
2022-11-24T00:19:19.895Z,42.67
2022-11-24T00:22:23.861Z,50.03
2022-11-24T00:25:27.501Z,46.95
2022-11-24T00:28:31.974Z,45.58
2022-11-24T00:31:40.685Z,45.10
2022-11-24T00:34:44.421Z,51.17
2022-11-24T00:37:47.529Z,52.13
2022-11-24T00:40:52.443Z,57.05
2022-11-24T00:43:56.473Z,35.80
2022-11-24T00:46:59.861Z,53.60
2022-11-24T00:50:05.011Z,70.78
2022-11-24T00:53:08.778Z,33.63
2022-11-24T00:56:12.889Z,24.98
2022-11-24T00:59:16.166Z,19.83
2022-11-24T01:02:20.139Z,31.10
2022-11-24T01:05:23.889Z,42.92
2022-11-24T01:08:27.597Z,45.85
2022-11-24T01:11:54.582Z,65.15
2022-11-24T01:14:59.603Z,102.35
2022-11-24T01:18:02.978Z,108.53
2022-11-24T01:21:10.102Z,89.30
2022-11-24T01:24:15.181Z,91.72
2022-11-24T01:27:18.872Z,83.55
2022-11-24T01:30:24.124Z,89.93
2022-11-24T01:33:28.273Z,97.90
2022-11-24T01:36:31.975Z,77.10
2022-11-24T01:39:35.798Z,61.88
2022-11-24T01:42:52.597Z,64.38
2022-11-24T01:45:56.761Z,66.22
2022-11-24T01:49:09.997Z,58.50
2022-11-24T01:52:20.636Z,59.90
2022-11-24T01:55:32.291Z,66.30
2022-11-24T01:58:36.842Z,77.20
2022-11-24T02:01:40.727Z,75.18
2022-11-24T02:04:45.937Z,81.50
2022-11-24T02:07:51.426Z,86.95
2022-11-24T02:10:56.036Z,69.68
2022-11-24T02:14:00.102Z,78.28
2022-11-24T02:17:03.937Z,69.95
2022-11-24T02:20:10.666Z,82.93
2022-11-24T02:23:52.744Z,120.88
2022-11-24T02:26:56.649Z,168.93
2022-11-24T02:30:00.536Z,177.00
2022-11-24T02:33:04.198Z,145.75
2022-11-24T02:36:08.265Z,149.45
2022-11-24T02:39:16.159Z,178.50
2022-11-24T02:42:19.195Z,145.85
2022-11-24T02:45:24.398Z,170.18
2022-11-24T02:48:27.564Z,153.55
2022-11-24T02:51:30.953Z,128.25
2022-11-24T02:54:35.190Z,114.40
2022-11-24T02:57:38.849Z,113.95
2022-11-24T03:00:42.168Z,113.43
2022-11-24T03:03:46.414Z,117.82
2022-11-24T03:06:50.193Z,138.40
2022-11-24T03:09:54.190Z,108.03
2022-11-24T03:12:57.405Z,119.18
2022-11-24T03:16:03.591Z,100.20
2022-11-24T03:19:07.436Z,96.68
2022-11-24T03:22:10.421Z,82.93
2022-11-24T03:25:14.067Z,87.50
2022-11-24T03:28:17.361Z,83.55
2022-11-24T03:31:20.506Z,94.85
2022-11-24T03:34:23.804Z,77.90
2022-11-24T03:37:26.927Z,68.93
2022-11-24T03:40:30.233Z,73.95
2022-11-24T03:43:36.790Z,71.32
2022-11-24T03:46:42.155Z,49.30
2022-11-24T03:49:45.188Z,52.05
2022-11-24T03:52:52.216Z,55.25
2022-11-24T03:55:55.989Z,51.17
2022-11-24T03:58:58.934Z,51.75
2022-11-24T04:02:01.972Z,40.92
2022-11-24T04:05:06.446Z,36.80
2022-11-24T04:08:09.911Z,35.13
2022-11-24T04:11:32.765Z,40.08
2022-11-24T04:14:35.877Z,41.25
2022-11-24T04:17:39.608Z,40.17
2022-11-24T04:20:43.177Z,39.40
2022-11-24T04:23:47.024Z,43.83
2022-11-24T04:26:50.256Z,35.20
2022-11-24T04:29:54.283Z,35.55
2022-11-24T04:32:57.960Z,40.67
2022-11-24T04:36:01.535Z,30.45
2022-11-24T04:39:19.826Z,35.88
2022-11-24T04:42:29.297Z,34.08
2022-11-24T04:45:32.489Z,34.58
2022-11-24T04:48:36.525Z,32.90
2022-11-24T04:51:40.683Z,20.98
2022-11-24T04:54:45.053Z,21.45
2022-11-24T04:57:48.295Z,27.38
2022-11-24T05:00:53.482Z,27.70
2022-11-24T05:03:57.377Z,30.77
2022-11-24T05:07:01.195Z,29.60
2022-11-24T05:10:23.833Z,32.20
2022-11-24T05:13:27.837Z,23.23
2022-11-24T05:16:30.796Z,20.02
2022-11-24T05:19:34.240Z,19.98
2022-11-24T05:22:37.975Z,22.27
2022-11-24T05:25:47.321Z,16.67
2022-11-24T05:28:51.284Z,20.05
2022-11-24T05:31:54.912Z,18.02
2022-11-24T05:34:58.787Z,19.42
2022-11-24T05:38:02.890Z,18.25
2022-11-24T05:41:07.054Z,18.65
2022-11-24T05:44:10.917Z,21.77
2022-11-24T05:47:14.514Z,28.15
2022-11-24T05:50:20.119Z,33.28
2022-11-24T05:53:24.714Z,29.38
2022-11-24T05:56:28.406Z,28.98
2022-11-24T05:59:31.763Z,26.25
2022-11-24T06:02:35.912Z,32.67
2022-11-24T06:05:39.389Z,28.45
2022-11-24T06:08:45.958Z,24.15
2022-11-24T06:11:50.334Z,32.92
2022-11-24T06:14:53.687Z,26.63
2022-11-24T06:17:57.251Z,25.65
2022-11-24T06:21:10.928Z,27.60
2022-11-24T06:24:15.264Z,24.23
2022-11-24T06:27:19.737Z,24.08
2022-11-24T06:30:23.316Z,24.02
2022-11-24T06:33:27.295Z,25.83
2022-11-24T06:36:31.048Z,22.25
2022-11-24T06:39:34.913Z,24.70
2022-11-24T06:42:38.678Z,23.27
2022-11-24T06:45:42.838Z,20.52
2022-11-24T06:48:46.237Z,29.73
2022-11-24T06:51:50.135Z,24.35
2022-11-24T06:54:54.196Z,26.73
2022-11-24T06:57:58.188Z,30.20
2022-11-24T07:01:02.020Z,27.48
2022-11-24T07:04:05.841Z,34.20
2022-11-24T07:07:09.350Z,33.00
2022-11-24T07:10:13.284Z,25.73
2022-11-24T07:13:16.528Z,42.67
2022-11-24T07:16:21.613Z,39.33
2022-11-24T07:19:25.503Z,25.02
2022-11-24T07:22:29.503Z,28.73
2022-11-24T07:25:32.718Z,27.33
2022-11-24T07:28:37.776Z,29.42
2022-11-24T07:31:41.507Z,24.15
2022-11-24T07:34:45.147Z,31.48
2022-11-24T07:37:48.651Z,36.90
2022-11-24T07:40:53.002Z,28.08
2022-11-24T07:43:56.663Z,39.58
2022-11-24T07:47:00.646Z,40.25
2022-11-24T07:50:04.338Z,28.38
2022-11-24T07:53:07.850Z,21.58
2022-11-24T07:56:11.838Z,31.27
2022-11-24T07:59:16.158Z,40.55
2022-11-24T08:02:20.154Z,49.63
2022-11-24T08:05:24.180Z,47.17
2022-11-24T08:08:27.958Z,23.05
2022-11-24T08:11:35.120Z,22.50
2022-11-24T08:14:37.988Z,39.55
2022-11-24T08:17:41.897Z,20.13
2022-11-24T08:20:45.444Z,16.70
2022-11-24T08:23:48.346Z,22.23
2022-11-24T08:26:52.095Z,37.25
2022-11-24T08:29:55.292Z,30.48
2022-11-24T08:33:02.782Z,31.00
2022-11-24T08:36:09.028Z,20.40
2022-11-24T08:39:12.540Z,25.25
2022-11-24T08:42:16.905Z,20.80
2022-11-24T08:45:22.028Z,32.13
2022-11-24T08:48:27.134Z,28.25
2022-11-24T08:51:30.963Z,46.67
2022-11-24T08:54:35.314Z,45.17
2022-11-24T08:57:39.143Z,64.60
2022-11-24T09:00:43.198Z,79.40
2022-11-24T09:03:51.000Z,71.60
2022-11-24T09:06:55.223Z,55.58
2022-11-24T09:09:58.829Z,61.17
2022-11-24T09:13:02.601Z,65.18
2022-11-24T09:16:17.889Z,61.42
2022-11-24T09:19:21.740Z,59.13
2022-11-24T09:22:24.666Z,60.75
2022-11-24T09:25:28.226Z,70.15
2022-11-24T09:28:31.187Z,63.55
2022-11-24T09:31:36.561Z,55.97
2022-11-24T09:34:40.189Z,57.17
2022-11-24T09:37:45.826Z,69.47
2022-11-24T09:40:50.446Z,60.15
2022-11-24T09:44:04.566Z,67.72
2022-11-24T09:47:23.241Z,69.25
2022-11-24T09:50:29.255Z,38.35
2022-11-24T09:53:57.142Z,46.55
2022-11-24T09:57:02.141Z,48.67
2022-11-24T10:00:13.894Z,51.72
2022-11-24T10:03:24.172Z,51.45
2022-11-24T10:06:35.668Z,56.30
2022-11-24T10:09:57.064Z,45.42
2022-11-24T10:13:25.172Z,50.45
2022-11-24T10:16:51.379Z,52.92
2022-11-24T10:20:04.679Z,54.60
2022-11-24T10:23:25.719Z,29.05
2022-11-24T10:26:38.510Z,46.35
2022-11-24T10:29:43.981Z,62.65
2022-11-24T10:32:50.748Z,54.38
2022-11-24T10:35:59.298Z,49.92
2022-11-24T10:39:13.473Z,63.00
2022-11-24T10:42:26.755Z,61.00
2022-11-24T10:45:33.725Z,74.68
2022-11-24T10:48:47.861Z,91.85
2022-11-24T10:52:12.583Z,88.85
2022-11-24T10:55:16.747Z,113.05
2022-11-24T10:58:29.606Z,88.53
2022-11-24T11:01:36.651Z,64.03
2022-11-24T11:04:39.613Z,79.88
2022-11-24T11:07:42.817Z,87.18
2022-11-24T11:10:49.107Z,82.38
2022-11-24T11:14:04.936Z,71.32
2022-11-24T11:17:37.101Z,62.63
2022-11-24T11:20:41.070Z,49.35
2022-11-24T11:23:46.578Z,26.05
2022-11-24T11:27:01.790Z,23.23
2022-11-24T11:34:21.819Z,27.58
2022-11-24T11:37:33.162Z,44.28
2022-11-24T11:40:37.676Z,48.80
2022-11-24T11:43:42.250Z,43.35
2022-11-24T11:46:46.838Z,46.55
2022-11-24T11:49:56.564Z,36.58
2022-11-24T11:53:34.643Z,36.13
2022-11-24T11:56:45.734Z,36.10
2022-11-24T12:00:05.334Z,38.15
2022-11-24T12:03:48.759Z,44.05
2022-11-24T12:07:11.236Z,37.25
2022-11-24T12:10:36.231Z,35.10
2022-11-24T12:14:03.636Z,34.17
2022-11-24T12:17:21.070Z,49.35
2022-11-24T12:20:56.374Z,57.85
2022-11-24T12:24:12.300Z,55.22
2022-11-24T12:27:32.028Z,73.88
2022-11-24T12:31:08.090Z,77.05
2022-11-24T12:34:39.384Z,75.55
2022-11-24T12:38:18.434Z,64.20
2022-11-24T12:41:42.537Z,56.53
2022-11-24T12:44:55.852Z,42.33
2022-11-24T12:48:05.840Z,31.55
2022-11-24T12:51:39.056Z,35.55
2022-11-24T12:54:48.237Z,31.67
2022-11-24T12:58:25.305Z,29.95
2022-11-24T13:01:48.330Z,35.42
2022-11-24T13:05:13.614Z,36.83
2022-11-24T13:08:17.661Z,35.97
2022-11-24T13:11:23.982Z,27.27
2022-11-24T13:14:37.958Z,26.55
2022-11-24T13:18:02.558Z,29.90
2022-11-24T13:21:04.520Z,27.95
2022-11-24T13:24:21.215Z,37.25
2022-11-24T13:27:43.302Z,30.58
2022-11-24T13:30:46.937Z,22.38
2022-11-24T13:33:51.012Z,28.50
2022-11-24T13:36:54.591Z,41.15
2022-11-24T13:39:58.933Z,41.13
2022-11-24T13:43:03.269Z,37.67
2022-11-24T13:46:11.233Z,41.25
2022-11-24T13:49:21.657Z,44.75
2022-11-24T13:52:40.436Z,52.50
2022-11-24T13:56:04.137Z,49.13
2022-11-24T13:59:25.179Z,54.40
2022-11-24T14:02:30.909Z,51.55
2022-11-24T14:05:39.240Z,73.97
2022-11-24T14:08:42.236Z,86.65
2022-11-24T14:12:00.031Z,71.68
2022-11-24T14:15:23.511Z,52.45
2022-11-24T14:18:29.751Z,40.53
2022-11-24T14:21:43.474Z,70.40
2022-11-24T14:25:02.303Z,49.33
2022-11-24T14:28:22.217Z,68.25
2022-11-24T14:31:26.994Z,57.88
2022-11-24T14:34:32.500Z,60.03
2022-11-24T14:37:36.734Z,46.35
2022-11-24T14:41:14.394Z,44.33
2022-11-24T14:44:27.500Z,43.65
2022-11-24T14:47:39.806Z,52.30
2022-11-24T14:50:43.754Z,44.67
2022-11-24T14:53:51.434Z,42.72
2022-11-24T14:57:04.724Z,34.13
2022-11-24T15:00:22.498Z,32.63
2022-11-24T15:03:25.374Z,35.53
2022-11-24T15:06:28.873Z,38.55
2022-11-24T15:09:45.909Z,50.10
2022-11-24T15:12:59.180Z,44.35
2022-11-24T15:16:05.786Z,35.85
2022-11-24T15:19:16.640Z,54.90
2022-11-24T15:22:41.667Z,50.17
2022-11-24T15:25:44.827Z,47.70
2022-11-24T15:28:48.826Z,50.22
2022-11-24T15:31:53.056Z,45.10
2022-11-24T15:34:57.189Z,50.33
2022-11-24T15:38:00.116Z,41.08
2022-11-24T15:41:17.973Z,39.80
2022-11-24T15:44:21.855Z,36.40
2022-11-24T15:47:25.056Z,44.40
2022-11-24T15:50:28.643Z,33.80
2022-11-24T15:53:39.865Z,37.40
2022-11-24T15:56:43.052Z,26.52
2022-11-24T15:59:49.389Z,20.52
2022-11-24T16:02:53.692Z,28.83
2022-11-24T16:05:59.375Z,23.73
2022-11-24T16:09:03.302Z,20.60
2022-11-24T16:12:11.158Z,19.63
2022-11-24T16:15:18.518Z,12.02
2022-11-24T16:18:22.586Z,12.73
2022-11-24T16:21:25.858Z,10.60
2022-11-24T16:24:29.932Z,10.15
2022-11-24T16:27:33.428Z,7.05
2022-11-24T16:30:36.863Z,6.65
2022-11-24T16:33:41.585Z,7.30
2022-11-24T16:36:45.011Z,6.07
2022-11-24T16:39:50.322Z,9.93
2022-11-24T16:42:54.241Z,7.40
2022-11-24T16:46:22.105Z,6.25
2022-11-24T16:49:25.836Z,3.72
2022-11-24T16:52:28.720Z,7.38
2022-11-24T16:55:32.703Z,5.38
2022-11-24T16:58:39.361Z,6.10
2022-11-24T17:01:42.476Z,11.95
2022-11-24T17:04:46.461Z,2.97
2022-11-24T17:07:49.759Z,5.88
2022-11-24T17:10:53.571Z,8.05
2022-11-24T17:13:58.805Z,4.10
2022-11-24T17:17:02.933Z,4.15
2022-11-24T17:20:07.739Z,5.50
2022-11-24T17:23:11.337Z,13.20
2022-11-24T17:26:16.961Z,11.13
2022-11-24T17:29:20.570Z,14.88
2022-11-24T17:32:23.472Z,18.40
2022-11-24T17:35:26.881Z,9.68
2022-11-24T17:38:31.487Z,13.38
2022-11-24T17:41:35.598Z,7.78
2022-11-24T17:44:38.474Z,9.90
2022-11-24T17:47:42.470Z,7.53
2022-11-24T17:50:45.367Z,11.95
2022-11-24T17:53:51.461Z,9.88
2022-11-24T17:56:54.551Z,7.57
2022-11-24T17:59:58.520Z,7.18
2022-11-24T18:03:02.227Z,4.97
2022-11-24T18:06:10.597Z,5.07
2022-11-24T18:09:14.264Z,7.57
2022-11-24T18:12:17.374Z,3.78
2022-11-24T18:15:21.581Z,4.10
2022-11-24T18:18:24.654Z,6.13
2022-11-24T18:21:27.669Z,3.38
2022-11-24T18:24:31.265Z,4.95
2022-11-24T18:27:35.197Z,9.15
2022-11-24T18:30:38.950Z,3.40
2022-11-24T18:33:43.958Z,2.47
2022-11-24T18:36:51.885Z,3.05
2022-11-24T18:39:55.484Z,5.72
2022-11-24T18:42:59.754Z,5.53
2022-11-24T18:46:08.747Z,8.70
2022-11-24T18:49:13.038Z,18.58
2022-11-24T18:52:17.027Z,28.65
2022-11-24T18:55:19.975Z,18.90
2022-11-24T18:58:24.130Z,10.88
2022-11-24T19:01:29.686Z,10.88
2022-11-24T19:04:33.785Z,9.93
2022-11-24T19:07:37.111Z,8.35
2022-11-24T19:10:41.105Z,6.80
2022-11-24T19:13:44.702Z,9.50
2022-11-24T19:16:49.086Z,8.88
2022-11-24T19:19:52.995Z,10.68
2022-11-24T19:22:56.913Z,6.47
2022-11-24T19:26:04.243Z,12.07
2022-11-24T19:29:08.319Z,7.28
2022-11-24T19:32:12.118Z,2.70
2022-11-24T19:35:16.097Z,4.88
2022-11-24T19:38:19.793Z,4.07
2022-11-24T19:41:29.286Z,2.90
2022-11-24T19:44:32.594Z,3.63
2022-11-24T19:47:36.682Z,4.53
2022-11-24T19:50:39.970Z,4.13
2022-11-24T19:53:44.283Z,3.65
2022-11-24T19:56:47.866Z,3.25
2022-11-24T19:59:52.145Z,3.05
2022-11-24T20:02:55.810Z,3.40
2022-11-24T20:05:58.818Z,3.15
2022-11-24T20:09:02.714Z,4.25
2022-11-24T20:12:06.756Z,5.22
2022-11-24T20:15:10.906Z,5.20
2022-11-24T20:18:14.475Z,16.10
2022-11-24T20:21:20.789Z,16.98
2022-11-24T20:24:25.714Z,11.88
2022-11-24T20:27:29.355Z,11.68
2022-11-24T20:30:33.750Z,13.18
2022-11-24T20:33:38.081Z,21.17
2022-11-24T20:36:44.394Z,19.73
2022-11-24T20:39:48.374Z,13.88
2022-11-24T20:42:51.945Z,6.68
2022-11-24T20:45:55.974Z,3.92
2022-11-24T20:49:00.558Z,13.32
2022-11-24T20:52:04.124Z,6.03
2022-11-24T20:55:08.531Z,6.40
2022-11-24T20:58:12.047Z,4.38
2022-11-24T21:01:39.140Z,10.57
2022-11-24T21:04:42.763Z,5.30
2022-11-24T21:07:46.129Z,5.32
2022-11-24T21:10:57.451Z,6.63
2022-11-24T21:14:01.408Z,6.28
2022-11-24T21:17:04.403Z,8.05
2022-11-24T21:20:10.949Z,6.57
2022-11-24T21:23:14.829Z,6.18
2022-11-24T21:26:19.295Z,5.45
2022-11-24T21:29:23.975Z,7.25
2022-11-24T21:32:29.052Z,4.88
2022-11-24T21:35:35.757Z,6.38
2022-11-24T21:38:40.108Z,9.77
2022-11-24T21:41:44.078Z,3.60
2022-11-24T21:44:48.076Z,9.05
2022-11-24T21:47:53.480Z,7.03
2022-11-24T21:50:59.757Z,4.85
2022-11-24T21:54:03.522Z,7.15
2022-11-24T21:57:06.418Z,8.82
2022-11-24T22:00:09.637Z,10.52
2022-11-24T22:03:12.986Z,8.07
2022-11-24T22:06:19.570Z,10.85
2022-11-24T22:09:22.557Z,6.47
2022-11-24T22:12:26.271Z,11.30
2022-11-24T22:15:29.817Z,4.95
2022-11-24T22:18:38.566Z,7.22
2022-11-24T22:21:41.538Z,8.45
2022-11-24T22:24:44.694Z,5.35
2022-11-24T22:27:47.724Z,8.63
2022-11-24T22:30:50.662Z,8.95
2022-11-24T22:33:55.161Z,8.93
2022-11-24T22:36:58.756Z,10.27
2022-11-24T22:40:01.891Z,6.53
2022-11-24T22:43:04.824Z,8.15
2022-11-24T22:46:13.648Z,8.40
2022-11-24T22:49:17.869Z,10.10
2022-11-24T22:52:21.718Z,10.25
2022-11-24T22:55:25.992Z,6.78
2022-11-24T22:58:30.699Z,5.88
2022-11-24T23:01:35.221Z,6.85
2022-11-24T23:04:39.755Z,10.52
2022-11-24T23:07:43.072Z,7.65
2022-11-24T23:10:46.546Z,3.60
2022-11-24T23:13:54.033Z,8.25
2022-11-24T23:17:01.435Z,7.93
2022-11-24T23:20:05.146Z,8.40
2022-11-24T23:23:09.621Z,6.38
2022-11-24T23:26:22.259Z,4.35
2022-11-24T23:29:26.638Z,7.53
2022-11-24T23:32:30.626Z,6.68
2022-11-24T23:35:34.483Z,8.52
2022-11-24T23:38:39.088Z,6.85
2022-11-24T23:41:42.315Z,3.13
2022-11-24T23:44:46.459Z,7.53
2022-11-24T23:47:49.872Z,9.23
2022-11-24T23:50:53.867Z,9.55
2022-11-24T23:53:58.892Z,10.90
2022-11-24T23:57:03.061Z,6.97
